Saint Germain, Wisconsin
Current Conditions -  °F | °C
As of 2:35 PM on Sunday 21 Dec 2014 (Local Time) from KEGV Reporting Station
Light Snow Light Snow  
Wind Chill: 24°   Ceiling: 600
Heat Index: 31°   Visibility: 1.2mi
Dew Point: 31°   Wind: 8mph
Humidity: 98%   Direction: 170°S
Pressure: 29.88"   Gusts: NA
Location:  45.9°N, 89.49°W
Report Text: KEGV 212035Z AUTO 17007KT 1 1/4SM -SN OVC006 00/M01 A2988 RMK AO2 T10051008
Loading
Personal Weather Stations






























Interactive Weather Map New forecast layout! Learn more

10-Day Weather Forecast

Advertisements
Track Severe Weather on mobile